createdAt,value
2022-10-19T00:00:30.748Z,12.30
2022-10-19T00:02:57.287Z,12.37
2022-10-19T00:05:23.814Z,12.63
2022-10-19T00:07:50.335Z,12.18
2022-10-19T00:10:16.919Z,12.68
2022-10-19T00:12:43.494Z,12.82
2022-10-19T00:15:10.275Z,13.38
2022-10-19T00:17:36.808Z,12.57
2022-10-19T00:20:03.648Z,11.93
2022-10-19T00:22:30.316Z,12.30
2022-10-19T00:24:57.860Z,12.18
2022-10-19T00:27:24.401Z,11.95
2022-10-19T00:29:51.005Z,11.93
2022-10-19T00:32:17.553Z,11.38
2022-10-19T00:34:44.097Z,11.75
2022-10-19T00:37:10.759Z,11.75
2022-10-19T00:39:37.461Z,10.80
2022-10-19T00:42:03.995Z,11.82
2022-10-19T00:44:30.434Z,11.93
2022-10-19T00:47:02.114Z,12.15
2022-10-19T00:49:30.182Z,12.07
2022-10-19T00:52:04.860Z,11.52
2022-10-19T00:54:32.302Z,11.35
2022-10-19T00:56:58.846Z,11.35
2022-10-19T00:59:25.883Z,12.50
2022-10-19T01:01:52.588Z,12.95
2022-10-19T01:04:20.900Z,12.93
2022-10-19T01:06:47.475Z,12.13
2022-10-19T01:09:14.058Z,12.40
2022-10-19T01:12:07.616Z,13.00
2022-10-19T01:14:49.139Z,11.88
2022-10-19T01:17:34.503Z,12.50
2022-10-19T01:20:28.210Z,12.60
2022-10-19T01:23:19.075Z,12.13
2022-10-19T01:26:14.503Z,12.20
2022-10-19T01:29:02.895Z,10.75
2022-10-19T01:31:41.459Z,10.75
2022-10-19T01:34:10.825Z,10.50
2022-10-19T01:36:54.114Z,11.35
2022-10-19T01:39:29.242Z,10.73
2022-10-19T01:42:07.719Z,10.38
2022-10-19T01:44:42.383Z,10.73
2022-10-19T01:47:11.107Z,10.40
2022-10-19T01:49:49.928Z,10.30
2022-10-19T01:52:18.229Z,9.68
2022-10-19T01:54:47.034Z,10.48
2022-10-19T01:57:14.624Z,10.05
2022-10-19T01:59:41.153Z,10.45
2022-10-19T02:02:07.858Z,10.95
2022-10-19T02:04:34.433Z,9.00
2022-10-19T02:07:01.084Z,9.68
2022-10-19T02:09:27.614Z,10.25
2022-10-19T02:11:59.083Z,11.27
2022-10-19T02:14:29.096Z,10.70
2022-10-19T02:17:17.209Z,10.95
2022-10-19T02:19:43.803Z,11.43
2022-10-19T02:22:10.510Z,11.30
2022-10-19T02:24:37.029Z,11.68
2022-10-19T02:27:05.489Z,11.07
2022-10-19T02:29:33.083Z,11.40
2022-10-19T02:31:59.971Z,12.18
2022-10-19T02:34:26.533Z,11.12
2022-10-19T02:36:53.390Z,10.88
2022-10-19T02:39:20.010Z,10.83
2022-10-19T02:41:57.045Z,10.35
2022-10-19T02:44:30.136Z,9.90
2022-10-19T02:47:30.901Z,10.65
2022-10-19T02:49:57.536Z,10.93
2022-10-19T02:52:24.059Z,11.35
2022-10-19T02:54:50.599Z,10.52
2022-10-19T02:57:19.009Z,11.68
2022-10-19T02:59:45.779Z,12.05
2022-10-19T03:02:13.146Z,12.27
2022-10-19T03:04:41.582Z,11.48
2022-10-19T03:07:12.280Z,10.73
2022-10-19T03:09:38.820Z,11.63
2022-10-19T03:12:05.500Z,11.05
2022-10-19T03:14:32.028Z,11.40
2022-10-19T03:16:58.568Z,12.00
2022-10-19T03:19:25.213Z,10.35
2022-10-19T03:21:51.745Z,11.15
2022-10-19T03:24:18.254Z,11.65
2022-10-19T03:26:44.813Z,11.18
2022-10-19T03:29:11.340Z,11.32
2022-10-19T03:31:37.872Z,11.52
2022-10-19T03:34:04.394Z,11.98
2022-10-19T03:36:36.951Z,11.35
2022-10-19T03:39:08.186Z,11.07
2022-10-19T03:41:35.363Z,10.38
2022-10-19T03:44:02.127Z,11.15
2022-10-19T03:46:28.699Z,10.63
2022-10-19T03:48:55.235Z,10.48
2022-10-19T03:51:26.454Z,10.57
2022-10-19T03:53:53.775Z,11.25
2022-10-19T03:56:21.698Z,11.07
2022-10-19T03:58:48.767Z,10.90
2022-10-19T04:01:16.077Z,11.10
2022-10-19T04:03:42.810Z,10.95
2022-10-19T04:06:11.415Z,11.18
2022-10-19T04:08:37.941Z,10.25
2022-10-19T04:11:14.334Z,11.00
2022-10-19T04:13:40.987Z,10.27
2022-10-19T04:16:08.016Z,11.57
2022-10-19T04:18:34.565Z,11.27
2022-10-19T04:21:02.587Z,11.48
2022-10-19T04:23:33.594Z,11.25
2022-10-19T04:26:07.208Z,10.68
2022-10-19T04:28:34.345Z,10.43
2022-10-19T04:31:04.640Z,10.88
2022-10-19T04:33:31.411Z,10.55
2022-10-19T04:36:01.726Z,11.63
2022-10-19T04:38:28.934Z,10.70
2022-10-19T04:40:56.126Z,10.48
2022-10-19T04:43:25.158Z,10.70
2022-10-19T04:45:51.686Z,10.23
2022-10-19T04:48:18.212Z,10.85
2022-10-19T04:50:44.745Z,10.43
2022-10-19T04:53:11.351Z,11.52
2022-10-19T04:55:43.991Z,11.38
2022-10-19T04:58:10.628Z,9.98
2022-10-19T05:00:40.244Z,10.50
2022-10-19T05:03:06.810Z,11.07
2022-10-19T05:05:33.486Z,11.50
2022-10-19T05:08:00.112Z,11.63
2022-10-19T05:10:26.683Z,10.02
2022-10-19T05:12:53.208Z,11.35
2022-10-19T05:15:19.759Z,11.48
2022-10-19T05:17:46.303Z,11.70
2022-10-19T05:20:13.377Z,11.60
2022-10-19T05:22:40.094Z,11.48
2022-10-19T05:25:07.346Z,10.95
2022-10-19T05:27:34.155Z,11.12
2022-10-19T05:30:00.904Z,10.65
2022-10-19T05:32:28.154Z,10.45
2022-10-19T05:34:54.734Z,10.80
2022-10-19T05:37:21.745Z,10.65
2022-10-19T05:39:48.268Z,10.98
2022-10-19T05:42:14.825Z,10.95
2022-10-19T05:44:41.397Z,11.25
2022-10-19T05:47:08.104Z,11.38
2022-10-19T05:49:34.679Z,10.73
2022-10-19T05:52:02.289Z,11.43
2022-10-19T05:54:29.184Z,10.32
2022-10-19T05:56:55.905Z,11.13
2022-10-19T05:59:23.648Z,10.52
2022-10-19T06:04:23.614Z,10.50
2022-10-19T06:06:54.212Z,10.50
2022-10-19T06:09:20.938Z,9.90
2022-10-19T06:11:49.032Z,11.23
2022-10-19T06:14:15.852Z,9.40
2022-10-19T06:16:42.796Z,9.23
2022-10-19T06:19:09.355Z,9.15
2022-10-19T06:21:35.943Z,8.90
2022-10-19T06:24:04.823Z,9.00
2022-10-19T06:26:32.659Z,8.85
2022-10-19T06:29:00.664Z,9.32
2022-10-19T06:31:28.434Z,8.32
2022-10-19T06:33:55.992Z,8.45
2022-10-19T06:36:24.182Z,8.80
2022-10-19T06:38:50.789Z,7.78
2022-10-19T06:41:17.501Z,8.30
2022-10-19T06:43:44.590Z,8.20
2022-10-19T06:46:20.400Z,7.93
2022-10-19T06:48:54.536Z,8.15
2022-10-19T06:51:21.299Z,7.70
2022-10-19T06:53:48.971Z,7.50
2022-10-19T06:56:17.214Z,7.53
2022-10-19T06:58:43.950Z,8.00
2022-10-19T07:01:11.874Z,6.78
2022-10-19T07:03:38.548Z,7.70
2022-10-19T07:06:07.125Z,7.18
2022-10-19T07:08:33.723Z,7.40
2022-10-19T07:11:02.091Z,7.50
2022-10-19T07:13:29.369Z,7.55
2022-10-19T07:16:08.043Z,6.30
2022-10-19T07:18:35.616Z,6.60
2022-10-19T07:21:03.831Z,7.45
2022-10-19T07:23:32.888Z,6.68
2022-10-19T07:26:03.963Z,8.48
2022-10-19T07:28:30.957Z,7.68
2022-10-19T07:30:57.611Z,8.25
2022-10-19T07:33:24.467Z,6.95
2022-10-19T07:35:51.206Z,7.03
2022-10-19T07:38:17.809Z,7.32
2022-10-19T07:40:47.281Z,7.53
2022-10-19T07:43:14.201Z,7.05
2022-10-19T07:45:40.764Z,7.70
2022-10-19T07:48:07.381Z,7.23
2022-10-19T07:50:33.926Z,7.72
2022-10-19T07:53:00.520Z,8.50
2022-10-19T07:55:27.172Z,8.10
2022-10-19T07:57:53.888Z,8.70
2022-10-19T08:00:20.538Z,9.63
2022-10-19T08:03:05.145Z,7.90
2022-10-19T08:05:33.988Z,8.18
2022-10-19T08:08:00.576Z,7.78
2022-10-19T08:10:27.342Z,8.30
2022-10-19T08:12:53.976Z,7.62
2022-10-19T08:15:20.541Z,7.60
2022-10-19T08:17:47.188Z,7.60
2022-10-19T08:20:13.810Z,7.62
2022-10-19T08:22:41.847Z,7.47
2022-10-19T08:25:08.618Z,6.82
2022-10-19T08:32:29.091Z,7.35
2022-10-19T08:34:55.727Z,6.63
2022-10-19T08:37:40.372Z,7.05
2022-10-19T08:40:17.772Z,6.85
2022-10-19T08:43:13.346Z,6.25
2022-10-19T08:45:43.144Z,6.45
2022-10-19T08:48:24.954Z,5.35
2022-10-19T08:50:51.655Z,5.12
2022-10-19T08:53:32.441Z,5.70
2022-10-19T08:56:06.697Z,5.65
2022-10-19T08:58:51.892Z,5.80
2022-10-19T09:01:41.319Z,6.35
2022-10-19T09:04:37.658Z,4.95
2022-10-19T09:07:30.758Z,5.55
2022-10-19T09:10:28.646Z,4.93
2022-10-19T09:12:59.241Z,4.93
2022-10-19T09:15:40.207Z,4.57
2022-10-19T09:18:26.040Z,4.50
2022-10-19T09:21:16.408Z,4.18
2022-10-19T09:24:00.145Z,3.58
2022-10-19T09:26:29.464Z,3.97
2022-10-19T09:29:06.923Z,4.10
2022-10-19T09:31:39.635Z,4.53
2022-10-19T09:34:12.161Z,4.80
2022-10-19T09:36:50.962Z,4.35
2022-10-19T09:39:17.792Z,3.83
2022-10-19T09:41:49.697Z,4.40
2022-10-19T09:44:17.046Z,4.45
2022-10-19T09:47:01.885Z,3.85
2022-10-19T09:49:42.595Z,3.58
2022-10-19T09:52:33.692Z,4.10
2022-10-19T09:55:04.055Z,3.10
2022-10-19T09:57:30.944Z,3.95
2022-10-19T09:59:57.708Z,3.80
2022-10-19T10:02:31.793Z,3.80
2022-10-19T10:05:14.022Z,3.20
2022-10-19T10:07:40.757Z,3.28
2022-10-19T10:10:55.240Z,3.80
2022-10-19T10:13:24.604Z,3.65
2022-10-19T10:15:59.760Z,4.43
2022-10-19T10:18:26.484Z,4.57
2022-10-19T10:21:13.542Z,4.10
2022-10-19T10:23:40.255Z,3.53
2022-10-19T10:26:19.819Z,3.60
2022-10-19T10:28:48.105Z,3.60
2022-10-19T10:31:15.300Z,3.78
2022-10-19T10:33:45.471Z,3.78
2022-10-19T10:36:12.606Z,2.83
2022-10-19T10:38:45.075Z,3.27
2022-10-19T10:41:19.190Z,1.90
2022-10-19T10:43:56.756Z,1.48
2022-10-19T10:46:27.402Z,1.80
2022-10-19T10:49:19.302Z,2.05
2022-10-19T10:51:50.732Z,1.52
2022-10-19T10:54:31.385Z,1.48
2022-10-19T10:57:19.277Z,2.00
2022-10-19T11:00:21.435Z,2.60
2022-10-19T11:02:57.664Z,1.70
2022-10-19T11:05:24.242Z,1.60
2022-10-19T11:07:54.983Z,1.60
2022-10-19T11:10:26.627Z,1.87
2022-10-19T11:13:02.087Z,2.00
2022-10-19T11:15:33.534Z,2.37
2022-10-19T11:18:31.351Z,1.95
2022-10-19T11:21:20.257Z,1.75
2022-10-19T11:26:49.163Z,1.45
2022-10-19T11:29:37.044Z,1.40
2022-10-19T11:32:03.750Z,2.10
2022-10-19T11:34:45.114Z,1.30
2022-10-19T11:37:49.430Z,1.67
2022-10-19T11:40:27.084Z,1.58
2022-10-19T11:43:24.872Z,1.75
2022-10-19T11:46:06.501Z,1.40
2022-10-19T11:48:35.597Z,1.83
2022-10-19T11:51:44.119Z,1.90
2022-10-19T11:54:29.646Z,1.58
2022-10-19T11:57:27.291Z,1.50
2022-10-19T12:00:38.099Z,1.50
2022-10-19T12:03:13.175Z,1.55
2022-10-19T12:05:58.547Z,2.05
2022-10-19T12:08:37.496Z,1.70
2022-10-19T12:11:03.963Z,1.50
2022-10-19T12:13:40.981Z,1.50
2022-10-19T12:16:08.060Z,1.80
2022-10-19T12:18:48.634Z,2.00
2022-10-19T12:21:17.987Z,1.77
2022-10-19T12:23:44.579Z,1.80
2022-10-19T12:26:14.521Z,1.65
2022-10-19T12:28:44.162Z,1.30
2022-10-19T12:31:10.858Z,1.52
2022-10-19T12:33:38.329Z,1.37
2022-10-19T12:36:50.205Z,1.55
2022-10-19T12:39:22.810Z,1.40
2022-10-19T12:41:56.208Z,1.45
2022-10-19T12:45:00.214Z,1.30
2022-10-19T12:47:28.072Z,1.70
2022-10-19T12:49:58.547Z,1.30
2022-10-19T12:52:52.606Z,1.60
2022-10-19T12:55:25.017Z,1.55
2022-10-19T12:58:19.935Z,1.90
2022-10-19T13:00:58.024Z,1.50
2022-10-19T13:03:27.597Z,1.65
2022-10-19T13:05:58.470Z,1.83
2022-10-19T13:08:30.584Z,2.28
2022-10-19T13:11:08.515Z,1.55
2022-10-19T13:13:53.593Z,1.92
2022-10-19T13:16:29.409Z,1.70
2022-10-19T13:19:14.098Z,2.08
2022-10-19T13:21:46.708Z,1.40
2022-10-19T13:24:25.032Z,1.50
2022-10-19T13:29:56.466Z,2.08
2022-10-19T13:32:45.496Z,1.60
2022-10-19T13:35:31.528Z,1.52
2022-10-19T13:38:10.319Z,1.90
2022-10-19T13:40:37.926Z,2.17
2022-10-19T13:45:30.855Z,1.62
2022-10-19T13:48:10.536Z,2.10
2022-10-19T13:50:41.845Z,2.03
2022-10-19T13:53:20.305Z,2.05
2022-10-19T13:55:49.652Z,2.80
2022-10-19T13:58:34.986Z,1.83
2022-10-19T14:01:23.821Z,2.90
2022-10-19T14:03:56.716Z,2.35
2022-10-19T14:06:28.415Z,2.75
2022-10-19T14:09:22.993Z,2.65
2022-10-19T14:11:51.445Z,2.92
2022-10-19T14:14:20.303Z,2.97
2022-10-19T14:16:59.648Z,3.03
2022-10-19T14:19:34.148Z,3.10
2022-10-19T14:22:01.532Z,2.87
2022-10-19T14:24:30.669Z,2.83
2022-10-19T14:27:00.108Z,3.25
2022-10-19T14:29:26.651Z,3.03
2022-10-19T14:31:53.991Z,3.90
2022-10-19T14:34:20.575Z,2.95
2022-10-19T14:36:48.040Z,2.83
2022-10-19T14:39:43.959Z,3.53
2022-10-19T14:42:10.885Z,3.30
2022-10-19T14:44:42.722Z,2.85
2022-10-19T14:47:22.175Z,2.85
2022-10-19T14:49:49.470Z,2.60
2022-10-19T14:52:31.256Z,2.22
2022-10-19T14:54:57.792Z,2.40
2022-10-19T14:57:32.311Z,2.78
2022-10-19T15:00:00.842Z,2.55
2022-10-19T15:02:40.879Z,2.55
2022-10-19T15:05:18.336Z,2.87
2022-10-19T15:07:44.874Z,2.43
2022-10-19T15:10:30.239Z,2.70
2022-10-19T15:13:03.178Z,2.90
2022-10-19T15:15:31.179Z,2.85
2022-10-19T15:18:00.723Z,2.40
2022-10-19T15:20:44.251Z,2.20
2022-10-19T15:23:45.839Z,2.70
2022-10-19T15:26:19.570Z,2.55
2022-10-19T15:28:46.393Z,2.62
2022-10-19T15:31:26.370Z,2.93
2022-10-19T15:33:54.906Z,2.80
2022-10-19T15:36:21.910Z,2.87
2022-10-19T15:38:50.009Z,2.83
2022-10-19T15:41:28.707Z,3.37
2022-10-19T15:44:04.192Z,2.75
2022-10-19T15:46:32.676Z,3.33
2022-10-19T15:49:17.564Z,2.50
2022-10-19T15:51:45.659Z,2.67
2022-10-19T15:54:13.054Z,2.60
2022-10-19T15:56:39.905Z,2.62
2022-10-19T15:59:11.386Z,2.47
2022-10-19T16:01:38.154Z,3.40
2022-10-19T16:04:04.897Z,3.23
2022-10-19T16:06:32.273Z,2.70
2022-10-19T16:08:59.184Z,3.37
2022-10-19T16:11:26.034Z,3.35
2022-10-19T16:13:52.624Z,2.93
2022-10-19T16:16:22.283Z,3.30
2022-10-19T16:18:48.889Z,2.83
2022-10-19T16:21:15.429Z,2.75
2022-10-19T16:23:42.286Z,2.67
2022-10-19T16:26:08.979Z,2.25
2022-10-19T16:28:35.499Z,3.30
2022-10-19T16:31:02.035Z,3.03
2022-10-19T16:33:28.575Z,3.37
2022-10-19T16:35:55.147Z,3.45
2022-10-19T16:38:21.718Z,3.50
2022-10-19T16:40:48.236Z,2.90
2022-10-19T16:43:14.771Z,2.58
2022-10-19T16:45:44.437Z,2.47
2022-10-19T16:48:12.169Z,3.70
2022-10-19T16:53:07.118Z,3.17
2022-10-19T16:55:33.664Z,3.30
2022-10-19T16:58:00.188Z,2.80
2022-10-19T17:00:26.763Z,2.92
2022-10-19T17:02:53.295Z,3.25
2022-10-19T17:05:19.850Z,3.05
2022-10-19T17:07:46.576Z,2.40
2022-10-19T17:10:13.194Z,3.00
2022-10-19T17:12:40.758Z,2.65
2022-10-19T17:17:55.594Z,2.45
2022-10-19T17:22:51.283Z,3.28
2022-10-19T17:25:17.821Z,3.12
2022-10-19T17:27:44.349Z,3.22
2022-10-19T17:30:11.109Z,2.92
2022-10-19T17:32:37.767Z,3.33
2022-10-19T17:35:04.779Z,3.27
2022-10-19T17:37:31.342Z,2.83
2022-10-19T17:39:57.916Z,2.92
2022-10-19T17:42:24.668Z,2.95
2022-10-19T17:44:51.202Z,2.87
2022-10-19T17:47:17.741Z,3.30
2022-10-19T17:49:44.270Z,3.20
2022-10-19T17:52:10.836Z,2.80
2022-10-19T17:54:48.541Z,3.25
2022-10-19T17:57:20.971Z,2.92
2022-10-19T17:59:52.764Z,3.30
2022-10-19T18:02:19.715Z,3.28
2022-10-19T18:04:46.247Z,3.55
2022-10-19T18:07:12.768Z,3.20
2022-10-19T18:09:39.361Z,3.50
2022-10-19T18:12:07.539Z,3.20
2022-10-19T18:14:34.250Z,3.60
2022-10-19T18:17:00.831Z,3.42
2022-10-19T18:19:27.364Z,3.72
2022-10-19T18:21:53.932Z,3.42
2022-10-19T18:24:21.419Z,3.40
2022-10-19T18:26:48.831Z,3.42
2022-10-19T18:29:16.968Z,3.17
2022-10-19T18:31:43.501Z,3.28
2022-10-19T18:34:13.985Z,3.45
2022-10-19T18:36:40.572Z,3.40
2022-10-19T18:39:07.610Z,3.50
2022-10-19T18:41:34.164Z,3.72
2022-10-19T18:44:03.169Z,3.83
2022-10-19T18:46:29.733Z,3.17
2022-10-19T18:48:56.277Z,3.05
2022-10-19T18:51:23.029Z,3.45
2022-10-19T18:53:49.649Z,3.58
2022-10-19T18:56:17.648Z,3.55
2022-10-19T18:58:44.257Z,3.50
2022-10-19T19:01:11.860Z,3.08
2022-10-19T19:03:39.429Z,3.05
2022-10-19T19:06:10.937Z,3.45
2022-10-19T19:08:37.593Z,3.37
2022-10-19T19:11:23.768Z,3.62
2022-10-19T19:13:58.092Z,3.50
2022-10-19T19:16:24.659Z,3.50
2022-10-19T19:18:51.284Z,3.70
2022-10-19T19:21:28.206Z,3.15
2022-10-19T19:23:55.224Z,3.47
2022-10-19T19:26:23.179Z,3.37
2022-10-19T19:28:51.759Z,3.83
2022-10-19T19:31:18.556Z,3.28
2022-10-19T19:33:45.373Z,3.50
2022-10-19T19:36:12.606Z,3.87
2022-10-19T19:38:39.150Z,3.30
2022-10-19T19:41:06.579Z,3.85
2022-10-19T19:43:33.431Z,3.50
2022-10-19T19:46:03.309Z,3.20
2022-10-19T19:48:32.882Z,3.20
2022-10-19T19:50:59.438Z,2.95
2022-10-19T19:53:26.018Z,3.28
2022-10-19T19:55:52.560Z,3.50
2022-10-19T19:58:19.123Z,3.67
2022-10-19T20:00:46.025Z,3.08
2022-10-19T20:03:13.294Z,3.50
2022-10-19T20:05:42.852Z,3.25
2022-10-19T20:08:09.543Z,2.90
2022-10-19T20:10:40.153Z,2.40
2022-10-19T20:13:06.714Z,2.90
2022-10-19T20:15:33.275Z,2.35
2022-10-19T20:17:59.794Z,2.70
2022-10-19T20:20:26.357Z,3.08
2022-10-19T20:22:53.008Z,2.58
2022-10-19T20:25:19.562Z,2.78
2022-10-19T20:27:46.085Z,2.50
2022-10-19T20:30:12.610Z,3.53
2022-10-19T20:32:39.166Z,2.97
2022-10-19T20:35:07.355Z,2.70
2022-10-19T20:37:33.923Z,2.50
2022-10-19T20:40:02.361Z,3.00
2022-10-19T20:42:31.048Z,2.78
2022-10-19T20:44:57.581Z,3.15
2022-10-19T20:47:24.112Z,3.30
2022-10-19T20:49:50.731Z,2.80
2022-10-19T20:52:17.329Z,3.15
2022-10-19T20:54:43.884Z,2.80
2022-10-19T20:57:10.393Z,2.80
2022-10-19T20:59:38.733Z,3.33
2022-10-19T21:02:05.281Z,3.00
2022-10-19T21:04:31.839Z,2.65
2022-10-19T21:06:58.412Z,3.28
2022-10-19T21:09:26.026Z,2.80
2022-10-19T21:11:52.740Z,3.20
2022-10-19T21:14:27.009Z,2.90
2022-10-19T21:16:58.655Z,2.65
2022-10-19T21:19:26.446Z,3.05
2022-10-19T21:24:26.896Z,3.15
2022-10-19T21:26:53.520Z,3.75
2022-10-19T21:29:20.129Z,3.42
2022-10-19T21:31:49.106Z,2.58
2022-10-19T21:34:26.027Z,3.25
2022-10-19T21:36:52.579Z,2.50
2022-10-19T21:39:19.229Z,2.55
2022-10-19T21:41:45.986Z,2.90
2022-10-19T21:44:12.603Z,2.85
2022-10-19T21:46:39.273Z,3.40
2022-10-19T21:49:05.820Z,2.70
2022-10-19T21:51:33.822Z,3.08
2022-10-19T21:54:00.834Z,2.50
2022-10-19T21:56:27.541Z,2.72
2022-10-19T21:58:54.260Z,2.37
2022-10-19T22:01:25.506Z,2.83
2022-10-19T22:04:01.910Z,2.45
2022-10-19T22:06:29.181Z,2.87
2022-10-19T22:08:55.783Z,2.60
2022-10-19T22:11:22.383Z,2.83
2022-10-19T22:13:48.975Z,2.85
2022-10-19T22:16:19.901Z,2.80
2022-10-19T22:18:47.282Z,2.75
2022-10-19T22:21:17.451Z,3.12
2022-10-19T22:23:44.882Z,3.20
2022-10-19T22:26:18.795Z,3.50
2022-10-19T22:28:45.415Z,2.90
2022-10-19T22:31:12.258Z,2.42
2022-10-19T22:33:38.907Z,2.70
2022-10-19T22:36:07.491Z,2.65
2022-10-19T22:38:34.237Z,2.87
2022-10-19T22:41:57.393Z,2.67
2022-10-19T22:44:23.939Z,2.58
2022-10-19T22:46:50.483Z,2.45
2022-10-19T22:49:17.042Z,2.50
2022-10-19T22:51:43.642Z,2.53
2022-10-19T22:54:10.241Z,2.47
2022-10-19T22:56:36.959Z,2.72
2022-10-19T22:59:04.368Z,2.40
2022-10-19T23:01:31.012Z,2.83
2022-10-19T23:03:57.792Z,2.80
2022-10-19T23:06:24.338Z,3.10
2022-10-19T23:08:50.890Z,2.70
2022-10-19T23:11:17.668Z,2.80
2022-10-19T23:13:44.207Z,2.70
2022-10-19T23:16:10.758Z,2.90
2022-10-19T23:18:38.449Z,2.53
2022-10-19T23:21:06.685Z,2.42
2022-10-19T23:23:33.530Z,2.50
2022-10-19T23:26:04.014Z,2.62
2022-10-19T23:28:30.855Z,2.60
2022-10-19T23:30:58.587Z,3.40
2022-10-19T23:35:52.206Z,2.97
2022-10-19T23:38:18.863Z,2.62
2022-10-19T23:40:45.421Z,3.35
2022-10-19T23:43:12.159Z,3.22
2022-10-19T23:45:39.285Z,2.78
2022-10-19T23:48:05.857Z,2.40
2022-10-19T23:50:32.411Z,2.47
2022-10-19T23:52:58.933Z,2.55
2022-10-19T23:55:25.459Z,2.90
2022-10-19T23:57:51.988Z,3.05
